sensor_id;sensor_type;location;lat;lon;timestamp;P1;durP1;ratioP1;P2;durP2;ratioP2
8297;SDS011;4187;42.778;23.242;2023-07-31T00:02:15;3.92;;;3.50;;
8297;SDS011;4187;42.778;23.242;2023-07-31T00:04:42;3.75;;;3.28;;
8297;SDS011;4187;42.778;23.242;2023-07-31T00:07:08;4.50;;;3.67;;
8297;SDS011;4187;42.778;23.242;2023-07-31T00:09:35;3.78;;;3.42;;
8297;SDS011;4187;42.778;23.242;2023-07-31T00:12:03;4.53;;;3.70;;
8297;SDS011;4187;42.778;23.242;2023-07-31T00:14:30;3.75;;;3.30;;
8297;SDS011;4187;42.778;23.242;2023-07-31T00:16:56;4.38;;;3.20;;
8297;SDS011;4187;42.778;23.242;2023-07-31T00:19:23;3.67;;;3.30;;
8297;SDS011;4187;42.778;23.242;2023-07-31T00:21:49;4.78;;;3.78;;
8297;SDS011;4187;42.778;23.242;2023-07-31T00:24:16;6.13;;;3.53;;
8297;SDS011;4187;42.778;23.242;2023-07-31T00:26:43;4.05;;;3.60;;
8297;SDS011;4187;42.778;23.242;2023-07-31T00:29:11;4.07;;;3.55;;
8297;SDS011;4187;42.778;23.242;2023-07-31T00:31:37;3.58;;;3.28;;
8297;SDS011;4187;42.778;23.242;2023-07-31T00:34:04;6.32;;;3.53;;
8297;SDS011;4187;42.778;23.242;2023-07-31T00:36:30;3.95;;;3.45;;
8297;SDS011;4187;42.778;23.242;2023-07-31T00:38:57;6.07;;;3.70;;
8297;SDS011;4187;42.778;23.242;2023-07-31T00:41:23;3.83;;;3.53;;
8297;SDS011;4187;42.778;23.242;2023-07-31T00:43:50;5.20;;;3.35;;
8297;SDS011;4187;42.778;23.242;2023-07-31T00:46:18;4.10;;;3.80;;
8297;SDS011;4187;42.778;23.242;2023-07-31T00:48:45;4.00;;;3.60;;
8297;SDS011;4187;42.778;23.242;2023-07-31T00:51:12;4.50;;;3.90;;
8297;SDS011;4187;42.778;23.242;2023-07-31T00:53:38;5.22;;;4.72;;
8297;SDS011;4187;42.778;23.242;2023-07-31T00:56:05;4.95;;;4.47;;
8297;SDS011;4187;42.778;23.242;2023-07-31T00:58:32;5.00;;;4.60;;
8297;SDS011;4187;42.778;23.242;2023-07-31T01:00:58;5.55;;;5.05;;
8297;SDS011;4187;42.778;23.242;2023-07-31T01:03:26;5.07;;;4.57;;
8297;SDS011;4187;42.778;23.242;2023-07-31T01:05:56;5.38;;;4.88;;
8297;SDS011;4187;42.778;23.242;2023-07-31T01:08:27;6.65;;;5.55;;
8297;SDS011;4187;42.778;23.242;2023-07-31T01:10:58;5.50;;;4.70;;
8297;SDS011;4187;42.778;23.242;2023-07-31T01:13:26;5.78;;;5.18;;
8297;SDS011;4187;42.778;23.242;2023-07-31T01:15:54;6.00;;;5.50;;
8297;SDS011;4187;42.778;23.242;2023-07-31T01:18:20;6.25;;;5.70;;
8297;SDS011;4187;42.778;23.242;2023-07-31T01:20:50;6.32;;;5.80;;
8297;SDS011;4187;42.778;23.242;2023-07-31T01:23:31;7.65;;;6.95;;
8297;SDS011;4187;42.778;23.242;2023-07-31T01:26:08;7.30;;;6.70;;
8297;SDS011;4187;42.778;23.242;2023-07-31T01:28:40;8.25;;;7.35;;
8297;SDS011;4187;42.778;23.242;2023-07-31T01:31:09;8.05;;;7.35;;
8297;SDS011;4187;42.778;23.242;2023-07-31T01:33:37;8.13;;;7.32;;
8297;SDS011;4187;42.778;23.242;2023-07-31T01:36:04;9.23;;;8.10;;
8297;SDS011;4187;42.778;23.242;2023-07-31T01:38:31;8.75;;;7.90;;
8297;SDS011;4187;42.778;23.242;2023-07-31T01:40:57;8.50;;;7.78;;
8297;SDS011;4187;42.778;23.242;2023-07-31T01:43:25;9.45;;;8.55;;
8297;SDS011;4187;42.778;23.242;2023-07-31T01:45:52;9.10;;;8.40;;
8297;SDS011;4187;42.778;23.242;2023-07-31T01:48:18;10.10;;;9.15;;
8297;SDS011;4187;42.778;23.242;2023-07-31T01:50:45;10.00;;;9.20;;
8297;SDS011;4187;42.778;23.242;2023-07-31T01:53:11;10.30;;;9.35;;
8297;SDS011;4187;42.778;23.242;2023-07-31T01:55:38;10.20;;;9.35;;
8297;SDS011;4187;42.778;23.242;2023-07-31T01:58:05;10.02;;;9.02;;
8297;SDS011;4187;42.778;23.242;2023-07-31T02:00:33;10.20;;;9.38;;
8297;SDS011;4187;42.778;23.242;2023-07-31T02:02:59;10.90;;;9.75;;
8297;SDS011;4187;42.778;23.242;2023-07-31T02:05:26;10.20;;;9.30;;
8297;SDS011;4187;42.778;23.242;2023-07-31T02:07:52;10.50;;;9.68;;
8297;SDS011;4187;42.778;23.242;2023-07-31T02:10:19;10.15;;;9.13;;
8297;SDS011;4187;42.778;23.242;2023-07-31T02:12:45;10.20;;;9.27;;
8297;SDS011;4187;42.778;23.242;2023-07-31T02:15:12;10.35;;;9.43;;
8297;SDS011;4187;42.778;23.242;2023-07-31T02:17:40;10.02;;;9.13;;
8297;SDS011;4187;42.778;23.242;2023-07-31T02:20:07;9.30;;;8.50;;
8297;SDS011;4187;42.778;23.242;2023-07-31T02:22:34;9.25;;;8.45;;
8297;SDS011;4187;42.778;23.242;2023-07-31T02:25:00;8.50;;;7.78;;
8297;SDS011;4187;42.778;23.242;2023-07-31T02:27:27;8.43;;;7.72;;
8297;SDS011;4187;42.778;23.242;2023-07-31T02:29:53;9.02;;;8.23;;
8297;SDS011;4187;42.778;23.242;2023-07-31T02:32:21;11.02;;;10.13;;
8297;SDS011;4187;42.778;23.242;2023-07-31T02:34:48;11.00;;;10.05;;
8297;SDS011;4187;42.778;23.242;2023-07-31T02:37:15;10.25;;;9.45;;
8297;SDS011;4187;42.778;23.242;2023-07-31T02:39:42;10.15;;;9.25;;
8297;SDS011;4187;42.778;23.242;2023-07-31T02:42:08;10.98;;;9.98;;
8297;SDS011;4187;42.778;23.242;2023-07-31T02:44:35;11.88;;;10.90;;
8297;SDS011;4187;42.778;23.242;2023-07-31T02:47:01;11.30;;;10.23;;
8297;SDS011;4187;42.778;23.242;2023-07-31T02:49:28;13.88;;;12.68;;
8297;SDS011;4187;42.778;23.242;2023-07-31T02:51:56;13.20;;;11.85;;
8297;SDS011;4187;42.778;23.242;2023-07-31T02:54:23;13.73;;;12.43;;
8297;SDS011;4187;42.778;23.242;2023-07-31T02:56:50;14.05;;;12.85;;
8297;SDS011;4187;42.778;23.242;2023-07-31T02:59:16;13.95;;;12.70;;
8297;SDS011;4187;42.778;23.242;2023-07-31T03:01:43;15.02;;;13.63;;
8297;SDS011;4187;42.778;23.242;2023-07-31T03:04:09;15.70;;;14.30;;
8297;SDS011;4187;42.778;23.242;2023-07-31T03:06:36;14.35;;;13.10;;
8297;SDS011;4187;42.778;23.242;2023-07-31T03:09:04;15.57;;;14.25;;
8297;SDS011;4187;42.778;23.242;2023-07-31T03:11:31;15.13;;;13.73;;
8297;SDS011;4187;42.778;23.242;2023-07-31T03:13:57;16.60;;;15.05;;
8297;SDS011;4187;42.778;23.242;2023-07-31T03:16:24;18.20;;;16.50;;
8297;SDS011;4187;42.778;23.242;2023-07-31T03:18:50;18.48;;;16.92;;
8297;SDS011;4187;42.778;23.242;2023-07-31T03:21:17;19.90;;;18.15;;
8297;SDS011;4187;42.778;23.242;2023-07-31T03:23:43;20.13;;;16.67;;
8297;SDS011;4187;42.778;23.242;2023-07-31T03:26:11;18.60;;;16.92;;
8297;SDS011;4187;42.778;23.242;2023-07-31T03:28:38;18.70;;;17.13;;
8297;SDS011;4187;42.778;23.242;2023-07-31T03:31:05;16.50;;;15.10;;
8297;SDS011;4187;42.778;23.242;2023-07-31T03:33:33;18.52;;;16.92;;
8297;SDS011;4187;42.778;23.242;2023-07-31T03:36:00;18.05;;;16.45;;
8297;SDS011;4187;42.778;23.242;2023-07-31T03:38:27;19.08;;;17.48;;
8297;SDS011;4187;42.778;23.242;2023-07-31T03:40:53;18.13;;;16.52;;
8297;SDS011;4187;42.778;23.242;2023-07-31T03:43:20;19.90;;;18.10;;
8297;SDS011;4187;42.778;23.242;2023-07-31T03:45:47;19.98;;;18.13;;
8297;SDS011;4187;42.778;23.242;2023-07-31T03:48:13;20.77;;;18.88;;
8297;SDS011;4187;42.778;23.242;2023-07-31T03:50:40;19.58;;;17.77;;
8297;SDS011;4187;42.778;23.242;2023-07-31T03:53:07;20.67;;;18.77;;
8297;SDS011;4187;42.778;23.242;2023-07-31T03:55:34;20.95;;;18.95;;
8297;SDS011;4187;42.778;23.242;2023-07-31T03:58:01;19.63;;;17.83;;
8297;SDS011;4187;42.778;23.242;2023-07-31T04:00:29;20.25;;;18.42;;
8297;SDS011;4187;42.778;23.242;2023-07-31T04:02:56;20.52;;;18.65;;
8297;SDS011;4187;42.778;23.242;2023-07-31T04:05:22;19.85;;;17.95;;
8297;SDS011;4187;42.778;23.242;2023-07-31T04:07:49;21.65;;;19.65;;
8297;SDS011;4187;42.778;23.242;2023-07-31T04:10:15;21.52;;;19.50;;
8297;SDS011;4187;42.778;23.242;2023-07-31T04:12:42;24.08;;;21.65;;
8297;SDS011;4187;42.778;23.242;2023-07-31T04:15:09;22.10;;;20.13;;
8297;SDS011;4187;42.778;23.242;2023-07-31T04:17:37;23.63;;;21.42;;
8297;SDS011;4187;42.778;23.242;2023-07-31T04:20:04;22.63;;;20.50;;
8297;SDS011;4187;42.778;23.242;2023-07-31T04:22:30;23.27;;;20.98;;
8297;SDS011;4187;42.778;23.242;2023-07-31T04:24:57;23.52;;;21.33;;
8297;SDS011;4187;42.778;23.242;2023-07-31T04:27:23;23.02;;;20.92;;
8297;SDS011;4187;42.778;23.242;2023-07-31T04:29:50;22.83;;;20.80;;
8297;SDS011;4187;42.778;23.242;2023-07-31T04:32:17;22.92;;;20.73;;
8297;SDS011;4187;42.778;23.242;2023-07-31T04:34:46;24.23;;;21.95;;
8297;SDS011;4187;42.778;23.242;2023-07-31T04:37:12;23.55;;;21.35;;
8297;SDS011;4187;42.778;23.242;2023-07-31T04:39:39;21.92;;;19.92;;
8297;SDS011;4187;42.778;23.242;2023-07-31T04:42:05;21.55;;;19.55;;
8297;SDS011;4187;42.778;23.242;2023-07-31T04:44:32;21.50;;;19.50;;
8297;SDS011;4187;42.778;23.242;2023-07-31T04:46:58;22.92;;;20.63;;
8297;SDS011;4187;42.778;23.242;2023-07-31T04:49:25;22.20;;;20.13;;
8297;SDS011;4187;42.778;23.242;2023-07-31T04:51:53;21.52;;;19.33;;
8297;SDS011;4187;42.778;23.242;2023-07-31T04:54:20;21.45;;;19.52;;
8297;SDS011;4187;42.778;23.242;2023-07-31T04:56:46;21.65;;;19.65;;
8297;SDS011;4187;42.778;23.242;2023-07-31T04:59:13;19.52;;;17.63;;
8297;SDS011;4187;42.778;23.242;2023-07-31T05:01:40;21.00;;;19.10;;
8297;SDS011;4187;42.778;23.242;2023-07-31T05:04:06;19.15;;;17.20;;
8297;SDS011;4187;42.778;23.242;2023-07-31T05:06:33;19.92;;;17.92;;
8297;SDS011;4187;42.778;23.242;2023-07-31T05:09:01;19.08;;;17.20;;
8297;SDS011;4187;42.778;23.242;2023-07-31T05:11:27;18.30;;;16.55;;
8297;SDS011;4187;42.778;23.242;2023-07-31T05:13:54;17.70;;;16.13;;
8297;SDS011;4187;42.778;23.242;2023-07-31T05:16:20;17.65;;;15.52;;
8297;SDS011;4187;42.778;23.242;2023-07-31T05:18:47;16.40;;;14.90;;
8297;SDS011;4187;42.778;23.242;2023-07-31T05:21:13;13.70;;;12.60;;
8297;SDS011;4187;42.778;23.242;2023-07-31T05:23:40;16.55;;;11.93;;
8297;SDS011;4187;42.778;23.242;2023-07-31T05:26:08;13.32;;;12.13;;
8297;SDS011;4187;42.778;23.242;2023-07-31T05:28:35;12.23;;;11.13;;
8297;SDS011;4187;42.778;23.242;2023-07-31T05:31:02;12.57;;;11.30;;
8297;SDS011;4187;42.778;23.242;2023-07-31T05:33:28;11.82;;;10.75;;
8297;SDS011;4187;42.778;23.242;2023-07-31T05:35:55;12.43;;;11.18;;
8297;SDS011;4187;42.778;23.242;2023-07-31T05:38:21;12.88;;;10.43;;
8297;SDS011;4187;42.778;23.242;2023-07-31T05:40:48;11.25;;;10.25;;
8297;SDS011;4187;42.778;23.242;2023-07-31T05:43:16;14.77;;;9.80;;
8297;SDS011;4187;42.778;23.242;2023-07-31T05:45:42;12.88;;;9.52;;
8297;SDS011;4187;42.778;23.242;2023-07-31T05:48:09;12.80;;;9.80;;
8297;SDS011;4187;42.778;23.242;2023-07-31T05:50:36;9.77;;;8.90;;
8297;SDS011;4187;42.778;23.242;2023-07-31T05:53:04;9.30;;;8.30;;
8297;SDS011;4187;42.778;23.242;2023-07-31T05:55:30;16.33;;;9.40;;
8297;SDS011;4187;42.778;23.242;2023-07-31T05:57:57;9.40;;;8.43;;
8297;SDS011;4187;42.778;23.242;2023-07-31T06:00:25;13.88;;;8.35;;
8297;SDS011;4187;42.778;23.242;2023-07-31T06:02:52;9.07;;;8.00;;
8297;SDS011;4187;42.778;23.242;2023-07-31T06:05:19;8.88;;;7.70;;
8297;SDS011;4187;42.778;23.242;2023-07-31T06:07:45;7.63;;;7.03;;
8297;SDS011;4187;42.778;23.242;2023-07-31T06:10:12;9.35;;;7.20;;
8297;SDS011;4187;42.778;23.242;2023-07-31T06:12:38;9.05;;;7.00;;
8297;SDS011;4187;42.778;23.242;2023-07-31T06:15:05;7.28;;;6.57;;
8297;SDS011;4187;42.778;23.242;2023-07-31T06:17:33;8.82;;;7.22;;
8297;SDS011;4187;42.778;23.242;2023-07-31T06:20:00;7.32;;;6.63;;
8297;SDS011;4187;42.778;23.242;2023-07-31T06:22:26;9.32;;;6.18;;
8297;SDS011;4187;42.778;23.242;2023-07-31T06:24:55;9.75;;;6.47;;
8297;SDS011;4187;42.778;23.242;2023-07-31T06:27:22;6.82;;;6.13;;
8297;SDS011;4187;42.778;23.242;2023-07-31T06:29:49;8.15;;;5.60;;
8297;SDS011;4187;42.778;23.242;2023-07-31T06:32:15;6.78;;;5.47;;
8297;SDS011;4187;42.778;23.242;2023-07-31T06:34:43;6.70;;;5.93;;
8297;SDS011;4187;42.778;23.242;2023-07-31T06:37:09;10.63;;;5.90;;
8297;SDS011;4187;42.778;23.242;2023-07-31T06:39:36;5.72;;;5.22;;
8297;SDS011;4187;42.778;23.242;2023-07-31T06:42:03;6.35;;;5.40;;
8297;SDS011;4187;42.778;23.242;2023-07-31T06:44:30;5.35;;;4.90;;
8297;SDS011;4187;42.778;23.242;2023-07-31T06:46:56;5.50;;;5.00;;
8297;SDS011;4187;42.778;23.242;2023-07-31T06:49:25;8.52;;;4.78;;
8297;SDS011;4187;42.778;23.242;2023-07-31T06:51:53;7.95;;;5.47;;
8297;SDS011;4187;42.778;23.242;2023-07-31T06:54:19;7.60;;;5.15;;
8297;SDS011;4187;42.778;23.242;2023-07-31T06:56:46;5.50;;;4.70;;
8297;SDS011;4187;42.778;23.242;2023-07-31T06:59:12;6.90;;;4.68;;
8297;SDS011;4187;42.778;23.242;2023-07-31T07:01:39;6.75;;;4.80;;
8297;SDS011;4187;42.778;23.242;2023-07-31T07:04:05;7.65;;;4.88;;
8297;SDS011;4187;42.778;23.242;2023-07-31T07:06:32;5.88;;;4.25;;
8297;SDS011;4187;42.778;23.242;2023-07-31T07:09:00;7.68;;;4.45;;
8297;SDS011;4187;42.778;23.242;2023-07-31T07:11:26;5.30;;;4.80;;
8297;SDS011;4187;42.778;23.242;2023-07-31T07:13:53;6.07;;;4.53;;
8297;SDS011;4187;42.778;23.242;2023-07-31T07:16:20;10.20;;;4.90;;
8297;SDS011;4187;42.778;23.242;2023-07-31T07:18:46;12.25;;;4.25;;
8297;SDS011;4187;42.778;23.242;2023-07-31T07:21:13;4.68;;;4.28;;
8297;SDS011;4187;42.778;23.242;2023-07-31T07:23:41;7.30;;;4.40;;
8297;SDS011;4187;42.778;23.242;2023-07-31T07:26:08;5.40;;;4.57;;
8297;SDS011;4187;42.778;23.242;2023-07-31T07:28:35;5.30;;;4.07;;
8297;SDS011;4187;42.778;23.242;2023-07-31T07:31:02;4.05;;;3.75;;
8297;SDS011;4187;42.778;23.242;2023-07-31T07:33:29;8.40;;;3.97;;
8297;SDS011;4187;42.778;23.242;2023-07-31T07:35:55;4.40;;;4.00;;
8297;SDS011;4187;42.778;23.242;2023-07-31T07:38:25;6.28;;;3.97;;
8297;SDS011;4187;42.778;23.242;2023-07-31T07:40:52;6.93;;;3.75;;
8297;SDS011;4187;42.778;23.242;2023-07-31T07:43:20;3.65;;;3.33;;
8297;SDS011;4187;42.778;23.242;2023-07-31T07:45:46;4.95;;;3.50;;
8297;SDS011;4187;42.778;23.242;2023-07-31T07:48:13;5.07;;;3.90;;
8297;SDS011;4187;42.778;23.242;2023-07-31T07:50:39;3.60;;;3.30;;
8297;SDS011;4187;42.778;23.242;2023-07-31T07:53:06;4.72;;;4.15;;
8297;SDS011;4187;42.778;23.242;2023-07-31T07:55:32;3.92;;;3.53;;
8297;SDS011;4187;42.778;23.242;2023-07-31T07:57:59;4.75;;;3.72;;
8297;SDS011;4187;42.778;23.242;2023-07-31T08:00:27;5.40;;;3.30;;
8297;SDS011;4187;42.778;23.242;2023-07-31T08:02:54;3.90;;;3.50;;
8297;SDS011;4187;42.778;23.242;2023-07-31T08:05:22;6.47;;;3.45;;
8297;SDS011;4187;42.778;23.242;2023-07-31T08:07:49;5.38;;;3.70;;
8297;SDS011;4187;42.778;23.242;2023-07-31T08:10:15;5.03;;;3.88;;
8297;SDS011;4187;42.778;23.242;2023-07-31T08:12:42;5.75;;;3.42;;
8297;SDS011;4187;42.778;23.242;2023-07-31T08:15:08;4.80;;;3.17;;
8297;SDS011;4187;42.778;23.242;2023-07-31T08:17:36;5.20;;;4.03;;
8297;SDS011;4187;42.778;23.242;2023-07-31T08:20:03;5.28;;;3.97;;
8297;SDS011;4187;42.778;23.242;2023-07-31T08:22:30;6.63;;;3.45;;
8297;SDS011;4187;42.778;23.242;2023-07-31T08:24:57;3.65;;;3.35;;
8297;SDS011;4187;42.778;23.242;2023-07-31T08:27:24;3.53;;;3.22;;
8297;SDS011;4187;42.778;23.242;2023-07-31T08:29:51;4.15;;;3.10;;
8297;SDS011;4187;42.778;23.242;2023-07-31T08:32:18;3.45;;;3.15;;
8297;SDS011;4187;42.778;23.242;2023-07-31T08:34:46;3.88;;;2.85;;
8297;SDS011;4187;42.778;23.242;2023-07-31T08:37:12;4.15;;;3.05;;
8297;SDS011;4187;42.778;23.242;2023-07-31T08:39:39;4.38;;;3.22;;
8297;SDS011;4187;42.778;23.242;2023-07-31T08:42:07;7.88;;;3.42;;
8297;SDS011;4187;42.778;23.242;2023-07-31T08:44:34;7.00;;;3.20;;
8297;SDS011;4187;42.778;23.242;2023-07-31T08:47:00;4.20;;;3.25;;
8297;SDS011;4187;42.778;23.242;2023-07-31T08:49:27;3.60;;;3.30;;
8297;SDS011;4187;42.778;23.242;2023-07-31T08:51:56;4.10;;;3.63;;
8297;SDS011;4187;42.778;23.242;2023-07-31T08:54:23;3.70;;;3.40;;
8297;SDS011;4187;42.778;23.242;2023-07-31T08:56:49;4.15;;;3.20;;
8297;SDS011;4187;42.778;23.242;2023-07-31T08:59:16;3.67;;;3.28;;
8297;SDS011;4187;42.778;23.242;2023-07-31T09:01:47;3.83;;;3.03;;
8297;SDS011;4187;42.778;23.242;2023-07-31T09:04:15;3.08;;;2.88;;
8297;SDS011;4187;42.778;23.242;2023-07-31T09:06:42;3.10;;;2.70;;
8297;SDS011;4187;42.778;23.242;2023-07-31T09:09:12;4.10;;;2.88;;
8297;SDS011;4187;42.778;23.242;2023-07-31T09:11:38;3.55;;;3.10;;
8297;SDS011;4187;42.778;23.242;2023-07-31T09:14:05;3.33;;;2.83;;
8297;SDS011;4187;42.778;23.242;2023-07-31T09:16:34;3.72;;;3.00;;
8297;SDS011;4187;42.778;23.242;2023-07-31T09:19:01;3.50;;;2.67;;
8297;SDS011;4187;42.778;23.242;2023-07-31T09:21:29;2.97;;;2.72;;
8297;SDS011;4187;42.778;23.242;2023-07-31T09:23:56;4.13;;;2.65;;
8297;SDS011;4187;42.778;23.242;2023-07-31T09:26:31;3.05;;;2.70;;
8297;SDS011;4187;42.778;23.242;2023-07-31T09:28:58;3.45;;;2.45;;
8297;SDS011;4187;42.778;23.242;2023-07-31T09:31:38;3.08;;;2.88;;
8297;SDS011;4187;42.778;23.242;2023-07-31T09:34:05;2.72;;;2.40;;
8297;SDS011;4187;42.778;23.242;2023-07-31T09:36:32;3.00;;;2.70;;
8297;SDS011;4187;42.778;23.242;2023-07-31T09:39:01;2.47;;;2.28;;
8297;SDS011;4187;42.778;23.242;2023-07-31T09:41:28;3.08;;;2.63;;
8297;SDS011;4187;42.778;23.242;2023-07-31T09:43:56;2.70;;;2.50;;
8297;SDS011;4187;42.778;23.242;2023-07-31T09:46:22;3.75;;;2.72;;
8297;SDS011;4187;42.778;23.242;2023-07-31T09:48:53;2.50;;;2.30;;
8297;SDS011;4187;42.778;23.242;2023-07-31T09:51:25;4.30;;;2.10;;
8297;SDS011;4187;42.778;23.242;2023-07-31T09:53:52;3.80;;;2.67;;
8297;SDS011;4187;42.778;23.242;2023-07-31T09:56:18;3.53;;;2.45;;
8297;SDS011;4187;42.778;23.242;2023-07-31T09:58:46;2.67;;;2.47;;
8297;SDS011;4187;42.778;23.242;2023-07-31T10:01:15;3.03;;;2.65;;
8297;SDS011;4187;42.778;23.242;2023-07-31T10:03:42;2.40;;;2.20;;
8297;SDS011;4187;42.778;23.242;2023-07-31T10:06:09;5.22;;;2.30;;
8297;SDS011;4187;42.778;23.242;2023-07-31T10:08:36;4.53;;;2.50;;
8297;SDS011;4187;42.778;23.242;2023-07-31T10:11:02;2.40;;;2.20;;
8297;SDS011;4187;42.778;23.242;2023-07-31T10:13:30;4.15;;;2.25;;
8297;SDS011;4187;42.778;23.242;2023-07-31T10:15:58;2.28;;;2.10;;
8297;SDS011;4187;42.778;23.242;2023-07-31T10:43:31;2.10;;;1.85;;
8297;SDS011;4187;42.778;23.242;2023-07-31T10:45:59;8.65;;;2.40;;
8297;SDS011;4187;42.778;23.242;2023-07-31T10:48:25;3.05;;;2.10;;
8297;SDS011;4187;42.778;23.242;2023-07-31T10:50:59;2.80;;;2.03;;
8297;SDS011;4187;42.778;23.242;2023-07-31T10:53:26;2.83;;;2.10;;
8297;SDS011;4187;42.778;23.242;2023-07-31T10:55:52;3.80;;;2.03;;
8297;SDS011;4187;42.778;23.242;2023-07-31T10:58:20;2.63;;;2.42;;
8297;SDS011;4187;42.778;23.242;2023-07-31T11:00:48;4.20;;;2.05;;
8297;SDS011;4187;42.778;23.242;2023-07-31T11:03:15;3.17;;;1.98;;
8297;SDS011;4187;42.778;23.242;2023-07-31T11:05:45;3.22;;;2.10;;
8297;SDS011;4187;42.778;23.242;2023-07-31T11:08:13;6.47;;;2.13;;
8297;SDS011;4187;42.778;23.242;2023-07-31T11:10:40;4.72;;;1.95;;
8297;SDS011;4187;42.778;23.242;2023-07-31T11:13:06;4.30;;;1.92;;
8297;SDS011;4187;42.778;23.242;2023-07-31T11:15:33;2.90;;;2.60;;
8297;SDS011;4187;42.778;23.242;2023-07-31T11:18:01;3.53;;;2.42;;
8297;SDS011;4187;42.778;23.242;2023-07-31T11:20:30;4.30;;;2.33;;
8297;SDS011;4187;42.778;23.242;2023-07-31T11:22:58;6.00;;;2.47;;
8297;SDS011;4187;42.778;23.242;2023-07-31T11:25:25;4.20;;;2.78;;
8297;SDS011;4187;42.778;23.242;2023-07-31T11:27:52;8.02;;;3.30;;
8297;SDS011;4187;42.778;23.242;2023-07-31T11:30:21;2.90;;;2.70;;
8297;SDS011;4187;42.778;23.242;2023-07-31T11:32:48;2.50;;;2.30;;
8297;SDS011;4187;42.778;23.242;2023-07-31T11:35:16;5.45;;;2.30;;
8297;SDS011;4187;42.778;23.242;2023-07-31T11:37:43;6.90;;;2.40;;
8297;SDS011;4187;42.778;23.242;2023-07-31T11:40:11;4.65;;;2.80;;
8297;SDS011;4187;42.778;23.242;2023-07-31T11:42:37;2.70;;;2.45;;
8297;SDS011;4187;42.778;23.242;2023-07-31T11:45:04;3.33;;;2.58;;
8297;SDS011;4187;42.778;23.242;2023-07-31T11:47:32;3.45;;;2.25;;
8297;SDS011;4187;42.778;23.242;2023-07-31T11:49:59;4.95;;;3.33;;
8297;SDS011;4187;42.778;23.242;2023-07-31T11:52:27;5.40;;;4.55;;
8297;SDS011;4187;42.778;23.242;2023-07-31T11:54:56;6.35;;;5.78;;
8297;SDS011;4187;42.778;23.242;2023-07-31T11:57:22;8.82;;;6.03;;
8297;SDS011;4187;42.778;23.242;2023-07-31T11:59:49;5.88;;;5.22;;
8297;SDS011;4187;42.778;23.242;2023-07-31T12:02:17;18.52;;;6.13;;
8297;SDS011;4187;42.778;23.242;2023-07-31T12:04:45;6.07;;;5.55;;
8297;SDS011;4187;42.778;23.242;2023-07-31T12:07:12;5.40;;;4.68;;
8297;SDS011;4187;42.778;23.242;2023-07-31T12:09:51;5.78;;;5.28;;
8297;SDS011;4187;42.778;23.242;2023-07-31T12:12:19;5.72;;;5.25;;
8297;SDS011;4187;42.778;23.242;2023-07-31T12:14:45;5.85;;;5.32;;
8297;SDS011;4187;42.778;23.242;2023-07-31T12:17:12;5.68;;;5.18;;
8297;SDS011;4187;42.778;23.242;2023-07-31T12:19:40;5.65;;;4.68;;
8297;SDS011;4187;42.778;23.242;2023-07-31T12:22:10;5.07;;;4.57;;
8297;SDS011;4187;42.778;23.242;2023-07-31T12:24:38;5.05;;;4.63;;
8297;SDS011;4187;42.778;23.242;2023-07-31T12:27:09;5.90;;;5.20;;
8297;SDS011;4187;42.778;23.242;2023-07-31T12:29:36;5.43;;;4.78;;
8297;SDS011;4187;42.778;23.242;2023-07-31T12:32:03;6.60;;;5.13;;
8297;SDS011;4187;42.778;23.242;2023-07-31T12:34:29;5.35;;;4.95;;
8297;SDS011;4187;42.778;23.242;2023-07-31T12:36:56;6.03;;;5.53;;
8297;SDS011;4187;42.778;23.242;2023-07-31T12:39:23;6.70;;;6.10;;
8297;SDS011;4187;42.778;23.242;2023-07-31T12:41:50;6.15;;;5.55;;
8297;SDS011;4187;42.778;23.242;2023-07-31T12:44:17;7.13;;;5.47;;
8297;SDS011;4187;42.778;23.242;2023-07-31T12:46:44;6.13;;;5.63;;
8297;SDS011;4187;42.778;23.242;2023-07-31T12:49:10;6.07;;;5.57;;
8297;SDS011;4187;42.778;23.242;2023-07-31T12:51:37;5.32;;;4.75;;
8297;SDS011;4187;42.778;23.242;2023-07-31T12:54:03;8.35;;;5.35;;
8297;SDS011;4187;42.778;23.242;2023-07-31T12:56:31;5.20;;;4.80;;
8297;SDS011;4187;42.778;23.242;2023-07-31T12:58:57;5.15;;;4.50;;
8297;SDS011;4187;42.778;23.242;2023-07-31T13:01:25;4.57;;;4.28;;
8297;SDS011;4187;42.778;23.242;2023-07-31T13:03:52;5.18;;;4.72;;
8297;SDS011;4187;42.778;23.242;2023-07-31T13:06:19;5.03;;;4.63;;
8297;SDS011;4187;42.778;23.242;2023-07-31T13:08:45;5.05;;;4.65;;
8297;SDS011;4187;42.778;23.242;2023-07-31T13:11:12;4.85;;;4.55;;
8297;SDS011;4187;42.778;23.242;2023-07-31T13:13:38;4.80;;;4.40;;
8297;SDS011;4187;42.778;23.242;2023-07-31T13:16:05;5.50;;;5.10;;
8297;SDS011;4187;42.778;23.242;2023-07-31T13:18:33;5.05;;;4.65;;
8297;SDS011;4187;42.778;23.242;2023-07-31T13:20:59;5.53;;;5.03;;
8297;SDS011;4187;42.778;23.242;2023-07-31T13:23:26;5.22;;;4.82;;
8297;SDS011;4187;42.778;23.242;2023-07-31T13:25:52;5.78;;;4.80;;
8297;SDS011;4187;42.778;23.242;2023-07-31T13:28:19;4.85;;;4.45;;
8297;SDS011;4187;42.778;23.242;2023-07-31T13:30:45;4.80;;;4.40;;
8297;SDS011;4187;42.778;23.242;2023-07-31T13:33:12;4.80;;;4.40;;
8297;SDS011;4187;42.778;23.242;2023-07-31T13:35:40;4.90;;;4.30;;
8297;SDS011;4187;42.778;23.242;2023-07-31T13:38:07;6.20;;;5.18;;
8297;SDS011;4187;42.778;23.242;2023-07-31T13:40:34;5.50;;;4.32;;
8297;SDS011;4187;42.778;23.242;2023-07-31T13:43:00;4.68;;;4.28;;
8297;SDS011;4187;42.778;23.242;2023-07-31T13:45:27;9.57;;;4.95;;
8297;SDS011;4187;42.778;23.242;2023-07-31T13:47:54;5.22;;;4.72;;
8297;SDS011;4187;42.778;23.242;2023-07-31T13:50:21;4.95;;;4.50;;
8297;SDS011;4187;42.778;23.242;2023-07-31T13:52:49;5.88;;;4.18;;
8297;SDS011;4187;42.778;23.242;2023-07-31T13:55:15;6.15;;;4.28;;
8297;SDS011;4187;42.778;23.242;2023-07-31T13:57:42;4.43;;;4.03;;
8297;SDS011;4187;42.778;23.242;2023-07-31T14:00:09;8.18;;;4.85;;
8297;SDS011;4187;42.778;23.242;2023-07-31T14:02:36;6.57;;;3.60;;
8297;SDS011;4187;42.778;23.242;2023-07-31T14:05:02;4.00;;;3.70;;
8297;SDS011;4187;42.778;23.242;2023-07-31T14:07:29;4.45;;;4.13;;
8297;SDS011;4187;42.778;23.242;2023-07-31T14:09:57;3.97;;;3.58;;
8297;SDS011;4187;42.778;23.242;2023-07-31T14:12:23;4.28;;;3.85;;
8297;SDS011;4187;42.778;23.242;2023-07-31T14:14:50;4.95;;;3.85;;
8297;SDS011;4187;42.778;23.242;2023-07-31T14:17:16;8.48;;;3.85;;
8297;SDS011;4187;42.778;23.242;2023-07-31T14:19:43;4.35;;;4.05;;
8297;SDS011;4187;42.778;23.242;2023-07-31T14:22:09;4.03;;;3.47;;
8297;SDS011;4187;42.778;23.242;2023-07-31T14:24:36;4.88;;;3.45;;
8297;SDS011;4187;42.778;23.242;2023-07-31T14:27:04;4.47;;;4.03;;
8297;SDS011;4187;42.778;23.242;2023-07-31T14:29:31;5.70;;;4.00;;
8297;SDS011;4187;42.778;23.242;2023-07-31T14:31:57;5.65;;;4.00;;
8297;SDS011;4187;42.778;23.242;2023-07-31T14:34:24;5.60;;;3.70;;
8297;SDS011;4187;42.778;23.242;2023-07-31T14:36:51;3.75;;;3.45;;
8297;SDS011;4187;42.778;23.242;2023-07-31T14:39:17;5.65;;;3.35;;
8297;SDS011;4187;42.778;23.242;2023-07-31T14:41:44;6.25;;;2.85;;
8297;SDS011;4187;42.778;23.242;2023-07-31T14:44:12;4.55;;;3.13;;
8297;SDS011;4187;42.778;23.242;2023-07-31T14:46:39;5.72;;;3.45;;
8297;SDS011;4187;42.778;23.242;2023-07-31T14:49:08;3.42;;;3.13;;
8297;SDS011;4187;42.778;23.242;2023-07-31T14:51:35;3.25;;;2.95;;
8297;SDS011;4187;42.778;23.242;2023-07-31T14:54:01;3.92;;;2.78;;
8297;SDS011;4187;42.778;23.242;2023-07-31T14:56:28;2.67;;;2.47;;
8297;SDS011;4187;42.778;23.242;2023-07-31T14:58:54;4.07;;;3.30;;
8297;SDS011;4187;42.778;23.242;2023-07-31T15:01:22;4.82;;;3.10;;
8297;SDS011;4187;42.778;23.242;2023-07-31T15:03:49;3.28;;;2.47;;
8297;SDS011;4187;42.778;23.242;2023-07-31T15:06:16;5.57;;;2.80;;
8297;SDS011;4187;42.778;23.242;2023-07-31T15:08:42;3.90;;;2.67;;
8297;SDS011;4187;42.778;23.242;2023-07-31T15:11:09;3.85;;;2.28;;
8297;SDS011;4187;42.778;23.242;2023-07-31T15:13:35;3.95;;;2.38;;
8297;SDS011;4187;42.778;23.242;2023-07-31T15:16:02;2.55;;;2.35;;
8297;SDS011;4187;42.778;23.242;2023-07-31T15:18:30;4.75;;;2.42;;
8297;SDS011;4187;42.778;23.242;2023-07-31T15:20:56;2.65;;;2.45;;